createdAt,value
2018-09-13T00:00:30.426Z,2.00
2018-09-13T00:03:01.808Z,2.10
2018-09-13T00:05:33.313Z,2.27
2018-09-13T00:08:05.321Z,2.30
2018-09-13T00:10:37.308Z,2.20
2018-09-13T00:13:15.222Z,2.10
2018-09-13T00:15:46.777Z,2.20
2018-09-13T00:18:18.417Z,2.10
2018-09-13T00:20:49.867Z,2.00
2018-09-13T00:23:21.307Z,2.30
2018-09-13T00:25:52.751Z,2.00
2018-09-13T00:28:24.324Z,2.00
2018-09-13T00:30:55.760Z,2.10
2018-09-13T00:33:27.301Z,1.80
2018-09-13T00:35:58.802Z,2.00
2018-09-13T00:38:30.218Z,2.10
2018-09-13T00:44:01.596Z,2.10
2018-09-13T00:46:32.727Z,2.00
2018-09-13T00:49:03.878Z,2.00
2018-09-13T00:54:05.633Z,1.90
2018-09-13T00:56:36.654Z,1.87
2018-09-13T00:59:07.622Z,1.87
2018-09-13T01:01:38.752Z,1.90
2018-09-13T01:04:09.724Z,2.00
2018-09-13T01:06:40.707Z,2.00
2018-09-13T01:09:11.925Z,1.87
2018-09-13T01:11:42.885Z,1.90
2018-09-13T01:16:55.338Z,2.05
2018-09-13T01:19:26.655Z,2.10
2018-09-13T01:21:57.708Z,2.07
2018-09-13T01:24:28.691Z,1.90
2018-09-13T01:26:59.691Z,1.70
2018-09-13T01:29:30.650Z,2.03
2018-09-13T01:32:01.704Z,2.10
2018-09-13T01:34:32.704Z,2.00
2018-09-13T01:37:03.687Z,1.90
2018-09-13T01:39:34.736Z,1.77
2018-09-13T01:42:05.825Z,2.10
2018-09-13T01:44:36.802Z,1.93
2018-09-13T01:47:08.395Z,2.30
2018-09-13T01:49:39.796Z,1.90
2018-09-13T01:52:11.021Z,1.80
2018-09-13T01:54:42.455Z,1.90
2018-09-13T01:57:14.011Z,1.90
2018-09-13T01:59:45.521Z,1.90
2018-09-13T02:02:17.413Z,2.00
2018-09-13T02:04:48.879Z,1.90
2018-09-13T02:09:51.199Z,1.83
2018-09-13T02:12:22.720Z,2.00
2018-09-13T02:14:54.455Z,1.80
2018-09-13T02:17:26.207Z,1.83
2018-09-13T02:19:57.863Z,1.90
2018-09-13T02:22:29.396Z,1.90
2018-09-13T02:25:00.872Z,2.10
2018-09-13T02:30:03.062Z,2.00
2018-09-13T02:32:34.757Z,1.80
2018-09-13T02:35:06.416Z,1.70
2018-09-13T02:37:37.898Z,2.03
2018-09-13T02:42:40.305Z,1.80
2018-09-13T02:45:11.761Z,1.63
2018-09-13T02:47:43.427Z,1.70
2018-09-13T02:50:14.896Z,1.90
2018-09-13T02:55:16.992Z,1.80
2018-09-13T02:57:51.575Z,1.90
2018-09-13T03:00:23.218Z,1.97
2018-09-13T03:02:54.678Z,1.77
2018-09-13T03:05:26.191Z,1.60
2018-09-13T03:07:57.727Z,1.90
2018-09-13T03:10:28.795Z,1.83
2018-09-13T03:12:59.886Z,1.70
2018-09-13T03:15:31.414Z,1.80
2018-09-13T03:18:02.803Z,1.60
2018-09-13T03:20:34.341Z,1.60
2018-09-13T03:23:05.865Z,1.83
2018-09-13T03:28:09.695Z,1.80
2018-09-13T03:30:41.230Z,1.87
2018-09-13T03:33:13.637Z,1.90
2018-09-13T03:35:45.243Z,1.60
2018-09-13T03:38:16.801Z,1.73
2018-09-13T03:40:48.408Z,1.77
2018-09-13T03:43:19.796Z,1.80
2018-09-13T03:45:51.317Z,1.63
2018-09-13T03:48:22.774Z,1.80
2018-09-13T03:50:53.798Z,1.63
2018-09-13T03:53:25.422Z,1.70
2018-09-13T03:55:56.718Z,1.70
2018-09-13T03:58:28.253Z,1.57
2018-09-13T04:00:59.800Z,1.70
2018-09-13T04:03:31.390Z,1.80
2018-09-13T04:06:02.853Z,1.60
2018-09-13T04:08:34.401Z,1.60
2018-09-13T04:11:05.805Z,1.80
2018-09-13T04:13:37.686Z,2.30
2018-09-13T04:16:09.351Z,1.50
2018-09-13T04:18:40.757Z,1.73
2018-09-13T04:21:12.540Z,1.50
2018-09-13T04:23:44.008Z,1.60
2018-09-13T04:26:15.569Z,1.60
2018-09-13T04:28:46.988Z,1.47
2018-09-13T04:31:18.563Z,1.77
2018-09-13T04:33:50.687Z,1.50
2018-09-13T04:36:22.222Z,1.70
2018-09-13T04:38:53.673Z,1.70
2018-09-13T04:41:24.969Z,1.40
2018-09-13T04:43:56.515Z,1.60
2018-09-13T04:46:27.874Z,1.73
2018-09-13T04:51:30.202Z,1.80
2018-09-13T04:54:01.762Z,1.90
2018-09-13T04:56:33.563Z,1.50
2018-09-13T04:59:05.200Z,1.60
2018-09-13T05:01:37.014Z,1.60
2018-09-13T05:04:08.670Z,1.60
2018-09-13T05:06:40.289Z,1.60
2018-09-13T05:09:14.452Z,1.30
2018-09-13T05:11:46.009Z,1.70
2018-09-13T05:14:17.625Z,2.00
2018-09-13T05:16:49.209Z,1.60
2018-09-13T05:19:20.743Z,1.50
2018-09-13T05:21:52.333Z,1.60
2018-09-13T05:24:23.845Z,1.50
2018-09-13T05:26:55.669Z,1.90
2018-09-13T05:29:27.227Z,1.57
2018-09-13T05:31:58.485Z,1.90
2018-09-13T05:34:29.663Z,1.70
2018-09-13T05:37:00.654Z,1.57
2018-09-13T05:39:31.682Z,1.67
2018-09-13T05:42:02.851Z,1.50
2018-09-13T05:47:04.977Z,1.73
2018-09-13T05:49:36.639Z,1.80
2018-09-13T05:52:08.210Z,1.43
2018-09-13T05:54:39.778Z,1.73
2018-09-13T05:57:11.341Z,1.70
2018-09-13T05:59:42.795Z,1.87
2018-09-13T06:02:13.913Z,1.67
2018-09-13T06:07:16.225Z,1.67
2018-09-13T06:09:47.885Z,1.80
2018-09-13T06:14:49.994Z,2.00
2018-09-13T06:17:21.549Z,1.90
2018-09-13T06:19:53.073Z,1.80
2018-09-13T06:24:54.978Z,2.23
2018-09-13T06:27:26.725Z,2.00
2018-09-13T06:29:58.382Z,1.80
2018-09-13T06:35:31.728Z,1.73
2018-09-13T06:38:02.809Z,1.97
2018-09-13T06:40:33.629Z,2.10
2018-09-13T06:43:04.448Z,1.83
2018-09-13T06:45:35.629Z,1.80
2018-09-13T06:48:07.529Z,1.80
2018-09-13T06:50:38.690Z,1.90
2018-09-13T06:53:10.206Z,1.67
2018-09-13T06:55:48.671Z,1.60
2018-09-13T06:58:20.298Z,1.80
2018-09-13T07:00:51.805Z,1.60
2018-09-13T07:03:23.306Z,1.67
2018-09-13T07:05:54.869Z,1.57
2018-09-13T07:10:57.247Z,1.90
2018-09-13T07:13:28.754Z,2.00
2018-09-13T07:16:00.193Z,1.53
2018-09-13T07:18:31.655Z,1.67
2018-09-13T07:21:03.200Z,1.90
2018-09-13T07:23:34.755Z,1.70
2018-09-13T07:26:06.297Z,1.67
2018-09-13T07:28:37.757Z,1.60
2018-09-13T07:31:09.299Z,1.70
2018-09-13T07:33:41.223Z,1.90
2018-09-13T07:36:12.751Z,1.90
2018-09-13T07:38:44.415Z,1.70
2018-09-13T07:41:15.632Z,1.97
2018-09-13T07:43:46.655Z,1.60
2018-09-13T07:46:17.698Z,1.77
2018-09-13T07:48:48.709Z,2.00
2018-09-13T07:51:20.300Z,1.70
2018-09-13T07:53:51.785Z,1.80
2018-09-13T07:56:23.269Z,1.67
2018-09-13T07:58:54.579Z,1.63
2018-09-13T08:01:25.902Z,1.60
2018-09-13T08:06:28.216Z,1.80
2018-09-13T08:08:59.746Z,1.70
2018-09-13T08:11:31.367Z,1.70
2018-09-13T08:14:02.813Z,2.03
2018-09-13T08:16:34.221Z,1.87
2018-09-13T08:19:05.748Z,2.30
2018-09-13T08:21:37.413Z,2.00
2018-09-13T08:24:08.759Z,1.80
2018-09-13T08:26:40.205Z,2.00
2018-09-13T08:29:11.765Z,1.87
2018-09-13T08:31:43.549Z,1.90
2018-09-13T08:34:15.207Z,1.83
2018-09-13T08:36:46.764Z,2.00
2018-09-13T08:39:18.019Z,1.97
2018-09-13T08:41:49.245Z,1.93
2018-09-13T08:44:20.684Z,2.20
2018-09-13T08:46:52.200Z,2.00
2018-09-13T08:49:23.652Z,2.33
2018-09-13T08:51:55.270Z,1.90
2018-09-13T08:54:26.749Z,2.20
2018-09-13T08:56:58.199Z,2.20
2018-09-13T08:59:29.979Z,2.30
2018-09-13T09:02:01.622Z,2.33
2018-09-13T09:04:33.311Z,1.93
2018-09-13T09:07:04.789Z,2.33
2018-09-13T09:09:36.317Z,2.27
2018-09-13T09:12:07.823Z,1.90
2018-09-13T09:14:39.448Z,2.03
2018-09-13T09:17:10.734Z,2.50
2018-09-13T09:19:42.215Z,2.43
2018-09-13T09:22:13.700Z,1.87
2018-09-13T09:24:45.205Z,2.50
2018-09-13T09:27:16.595Z,1.90
2018-09-13T09:29:47.937Z,2.07
2018-09-13T09:34:50.265Z,2.00
2018-09-13T09:37:21.849Z,2.30
2018-09-13T09:39:53.421Z,2.35
2018-09-13T09:42:24.841Z,2.60
2018-09-13T09:44:56.322Z,2.30
2018-09-13T09:47:34.639Z,2.20
2018-09-13T09:50:06.669Z,2.43
2018-09-13T09:52:38.197Z,2.40
2018-09-13T09:55:09.713Z,2.63
2018-09-13T09:57:42.364Z,2.63
2018-09-13T10:00:13.848Z,2.90
2018-09-13T10:02:45.473Z,2.60
2018-09-13T10:05:16.776Z,2.87
2018-09-13T10:07:48.432Z,2.77
2018-09-13T10:10:19.977Z,2.80
2018-09-13T10:12:51.593Z,2.57
2018-09-13T10:15:28.337Z,3.13
2018-09-13T10:18:04.869Z,3.60
2018-09-13T10:23:17.311Z,3.40
2018-09-13T10:25:53.873Z,2.70
2018-09-13T10:31:06.219Z,3.17
2018-09-13T10:33:42.764Z,3.03
2018-09-13T10:36:19.239Z,3.67
2018-09-13T10:38:56.048Z,3.27
2018-09-13T10:41:32.670Z,3.13
2018-09-13T10:44:09.224Z,3.27
2018-09-13T10:46:41.225Z,3.70
2018-09-13T10:49:17.705Z,3.60
2018-09-13T10:51:54.470Z,3.30
2018-09-13T10:54:31.350Z,3.37
2018-09-13T10:58:07.758Z,3.50
2018-09-13T11:00:39.428Z,3.83
2018-09-13T11:03:11.320Z,3.40
2018-09-13T11:05:42.821Z,3.30
2018-09-13T11:08:14.313Z,3.03
2018-09-13T11:10:45.892Z,4.10
2018-09-13T11:15:52.221Z,3.83
2018-09-13T11:18:23.734Z,3.60
2018-09-13T11:20:55.313Z,4.03
2018-09-13T11:23:26.809Z,3.47
2018-09-13T11:25:58.659Z,3.70
2018-09-13T11:28:30.218Z,3.77
2018-09-13T11:31:04.744Z,4.83
2018-09-13T11:33:36.829Z,3.77
2018-09-13T11:36:08.468Z,4.10
2018-09-13T11:38:39.872Z,3.60
2018-09-13T11:43:41.992Z,2.67
2018-09-13T11:46:13.683Z,4.30
2018-09-13T11:48:45.345Z,3.90
2018-09-13T11:51:16.874Z,3.90
2018-09-13T11:56:19.237Z,4.67
2018-09-13T11:58:50.720Z,4.27
2018-09-13T12:01:22.280Z,4.20
2018-09-13T12:03:53.830Z,5.20
2018-09-13T12:06:25.638Z,3.43
2018-09-13T12:08:57.205Z,5.57
2018-09-13T12:11:28.715Z,5.43
2018-09-13T12:14:00.343Z,4.27
2018-09-13T12:16:31.849Z,4.37
2018-09-13T12:19:03.312Z,4.55
2018-09-13T12:21:35.756Z,4.50
2018-09-13T12:24:07.410Z,4.30
2018-09-13T12:26:38.974Z,3.20
2018-09-13T12:29:10.518Z,3.17
2018-09-13T12:31:42.228Z,4.43
2018-09-13T12:34:13.989Z,3.97
2018-09-13T12:36:45.576Z,5.10
2018-09-13T12:39:17.002Z,4.37
2018-09-13T12:41:48.749Z,3.43
2018-09-13T12:44:19.786Z,3.67
2018-09-13T12:46:50.785Z,4.63
2018-09-13T12:49:22.705Z,3.63
2018-09-13T12:51:54.329Z,3.13
2018-09-13T12:54:25.784Z,3.60
2018-09-13T12:56:57.444Z,3.37
2018-09-13T12:59:28.747Z,3.50
2018-09-13T13:02:00.318Z,3.10
2018-09-13T13:04:31.801Z,3.17
2018-09-13T13:07:03.421Z,2.70
2018-09-13T13:09:34.760Z,2.90
2018-09-13T13:12:06.436Z,2.90
2018-09-13T13:14:37.870Z,3.50
2018-09-13T13:17:09.435Z,2.70
2018-09-13T13:19:40.886Z,3.20
2018-09-13T13:24:43.000Z,3.03
2018-09-13T13:27:14.790Z,3.30
2018-09-13T13:29:46.214Z,3.03
2018-09-13T13:32:17.753Z,3.73
2018-09-13T13:34:49.415Z,2.67
2018-09-13T13:37:20.841Z,3.17
2018-09-13T13:39:52.452Z,3.63
2018-09-13T13:42:23.810Z,3.27
2018-09-13T13:44:55.390Z,2.70
2018-09-13T13:47:27.246Z,3.33
2018-09-13T13:49:58.650Z,3.43
2018-09-13T13:52:30.214Z,2.40
2018-09-13T13:55:01.720Z,2.50
2018-09-13T13:57:33.225Z,2.93
2018-09-13T14:00:04.724Z,3.33
2018-09-13T14:02:36.976Z,3.73
2018-09-13T14:05:08.683Z,3.40
2018-09-13T14:07:40.529Z,3.90
2018-09-13T14:10:11.923Z,2.77
2018-09-13T14:12:43.445Z,4.05
2018-09-13T14:15:14.839Z,3.10
2018-09-13T14:17:46.334Z,3.40
2018-09-13T14:20:17.735Z,2.67
2018-09-13T14:22:49.323Z,2.87
2018-09-13T14:25:20.703Z,4.43
2018-09-13T14:27:52.315Z,3.10
2018-09-13T14:30:23.795Z,4.50
2018-09-13T14:32:55.320Z,3.53
2018-09-13T14:35:26.864Z,3.50
2018-09-13T14:37:58.472Z,3.07
2018-09-13T14:40:29.847Z,4.00
2018-09-13T14:43:01.293Z,3.97
2018-09-13T14:45:32.776Z,3.23
2018-09-13T14:48:04.896Z,3.17
2018-09-13T14:53:07.553Z,3.80
2018-09-13T14:55:39.425Z,3.43
2018-09-13T14:58:10.771Z,2.97
2018-09-13T15:00:41.783Z,3.30
2018-09-13T15:03:12.833Z,4.40
2018-09-13T15:05:44.214Z,4.53
2018-09-13T15:08:15.745Z,2.73
2018-09-13T15:10:47.312Z,3.07
2018-09-13T15:13:18.767Z,2.83
2018-09-13T15:15:50.299Z,2.80
2018-09-13T15:18:21.819Z,3.43
2018-09-13T15:20:53.309Z,3.70
2018-09-13T15:23:25.017Z,3.23
2018-09-13T15:25:56.510Z,3.13
2018-09-13T15:28:27.994Z,4.00
2018-09-13T15:30:59.521Z,3.20
2018-09-13T15:33:31.021Z,3.60
2018-09-13T15:36:02.726Z,3.83
2018-09-13T15:38:34.698Z,3.40
2018-09-13T15:41:06.267Z,2.90
2018-09-13T15:43:37.764Z,4.37
2018-09-13T15:46:09.422Z,3.30
2018-09-13T15:48:40.977Z,3.77
2018-09-13T15:51:12.545Z,3.67
2018-09-13T15:53:44.007Z,2.90
2018-09-13T15:56:15.604Z,3.80
2018-09-13T15:58:47.309Z,4.47
2018-09-13T16:01:18.752Z,4.77
2018-09-13T16:03:50.307Z,3.70
2018-09-13T16:06:21.829Z,3.90
2018-09-13T16:08:53.478Z,3.80
2018-09-13T16:11:24.909Z,4.20
2018-09-13T16:16:26.908Z,3.87
2018-09-13T16:21:28.983Z,3.50
2018-09-13T16:24:00.685Z,3.87
2018-09-13T16:26:32.223Z,3.47
2018-09-13T16:29:03.697Z,4.27
2018-09-13T16:31:35.223Z,5.13
2018-09-13T16:34:06.769Z,4.73
2018-09-13T16:36:40.012Z,3.57
2018-09-13T16:39:27.220Z,4.90
2018-09-13T16:42:03.833Z,4.60
2018-09-13T16:44:40.383Z,3.50
2018-09-13T16:48:16.497Z,5.23
2018-09-13T16:50:47.908Z,3.83
2018-09-13T16:55:50.199Z,3.27
2018-09-13T16:58:21.708Z,4.30
2018-09-13T17:00:53.212Z,4.13
2018-09-13T17:03:24.713Z,4.13
2018-09-13T17:05:56.313Z,4.47
2018-09-13T17:08:27.748Z,2.83
2018-09-13T17:10:59.335Z,3.23
2018-09-13T17:13:30.799Z,4.40
2018-09-13T17:16:02.222Z,3.57
2018-09-13T17:18:33.700Z,3.43
2018-09-13T17:21:05.391Z,3.00
2018-09-13T17:23:36.778Z,3.27
2018-09-13T17:26:08.328Z,4.90
2018-09-13T17:28:40.024Z,3.43
2018-09-13T17:31:11.716Z,2.70
2018-09-13T17:33:43.532Z,4.77
2018-09-13T17:36:14.821Z,3.30
2018-09-13T17:38:46.239Z,3.40
2018-09-13T17:41:17.806Z,4.83
2018-09-13T17:43:49.689Z,3.87
2018-09-13T17:46:21.215Z,5.37
2018-09-13T17:48:52.662Z,3.20
2018-09-13T17:51:24.216Z,4.77
2018-09-13T17:53:55.716Z,4.63
2018-09-13T17:56:27.304Z,4.53
2018-09-13T17:58:58.760Z,4.30
2018-09-13T18:01:30.325Z,3.30
2018-09-13T18:04:01.756Z,4.13
2018-09-13T18:06:33.318Z,4.67
2018-09-13T18:09:06.993Z,3.90
2018-09-13T18:11:38.675Z,5.30
2018-09-13T18:14:10.210Z,4.37
2018-09-13T18:16:41.720Z,4.40
2018-09-13T18:19:12.982Z,3.00
2018-09-13T18:21:44.527Z,6.33
2018-09-13T18:24:15.892Z,3.50
2018-09-13T18:29:18.689Z,3.77
2018-09-13T18:31:50.204Z,3.53
2018-09-13T18:34:21.757Z,5.20
2018-09-13T18:36:53.303Z,4.83
2018-09-13T18:39:24.757Z,4.67
2018-09-13T18:41:55.850Z,3.67
2018-09-13T18:44:26.808Z,4.70
2018-09-13T18:46:58.209Z,3.80
2018-09-13T18:49:29.680Z,4.70
2018-09-13T18:52:01.320Z,3.93
2018-09-13T18:54:32.777Z,5.30
2018-09-13T18:57:04.570Z,3.50
2018-09-13T18:59:35.969Z,4.23
2018-09-13T19:04:37.961Z,6.63
2018-09-13T19:07:09.539Z,6.07
2018-09-13T19:09:41.212Z,5.00
2018-09-13T19:12:12.772Z,5.77
2018-09-13T19:14:44.681Z,4.40
2018-09-13T19:17:16.355Z,4.80
2018-09-13T19:19:47.767Z,3.77
2018-09-13T19:22:19.356Z,5.90
2018-09-13T19:24:50.982Z,3.70
2018-09-13T19:27:22.486Z,3.93
2018-09-13T19:29:53.847Z,5.03
2018-09-13T19:32:25.383Z,4.75
2018-09-13T19:34:56.766Z,3.80
2018-09-13T19:37:28.361Z,3.73
2018-09-13T19:39:59.775Z,2.97
2018-09-13T19:42:30.840Z,3.43
2018-09-13T19:45:02.452Z,4.27
2018-09-13T19:47:33.861Z,3.23
2018-09-13T19:52:36.215Z,3.07
2018-09-13T19:55:08.418Z,3.03
2018-09-13T19:57:39.883Z,3.00
2018-09-13T20:00:12.835Z,3.30
2018-09-13T20:05:14.828Z,3.03
2018-09-13T20:07:46.394Z,3.60
2018-09-13T20:10:17.871Z,3.90
2018-09-13T20:12:49.683Z,3.20
2018-09-13T20:15:21.204Z,2.93
2018-09-13T20:17:52.744Z,2.80
2018-09-13T20:20:24.379Z,3.50
2018-09-13T20:22:55.834Z,3.80
2018-09-13T20:25:27.427Z,3.50
2018-09-13T20:27:58.857Z,3.13
2018-09-13T20:33:01.006Z,3.40
2018-09-13T20:35:32.579Z,3.27
2018-09-13T20:38:04.227Z,2.90
2018-09-13T20:40:35.811Z,3.10
2018-09-13T20:43:07.823Z,4.00
2018-09-13T20:45:39.523Z,3.20
2018-09-13T20:48:11.308Z,3.17
2018-09-13T20:50:42.808Z,3.00
2018-09-13T20:53:14.224Z,2.80
2018-09-13T20:55:45.748Z,4.20
2018-09-13T20:58:17.634Z,3.20
2018-09-13T21:00:49.406Z,2.80
2018-09-13T21:03:20.660Z,2.90
2018-09-13T21:05:52.207Z,3.03
2018-09-13T21:08:23.897Z,3.07
2018-09-13T21:13:26.207Z,2.53
2018-09-13T21:15:57.723Z,2.40
2018-09-13T21:18:28.868Z,2.93
2018-09-13T21:23:30.864Z,2.60
2018-09-13T21:28:33.498Z,2.67
2018-09-13T21:31:05.218Z,2.43
2018-09-13T21:33:36.768Z,2.40
2018-09-13T21:36:08.431Z,2.60
2018-09-13T21:38:39.873Z,2.70
2018-09-13T21:43:42.218Z,2.37
2018-09-13T21:46:13.793Z,2.40
2018-09-13T21:48:45.307Z,2.30
2018-09-13T21:51:16.838Z,2.60
2018-09-13T21:53:48.391Z,2.40
2018-09-13T21:56:19.914Z,2.20
2018-09-13T21:58:51.730Z,2.37
2018-09-13T22:01:23.503Z,2.20
2018-09-13T22:03:54.889Z,2.47
2018-09-13T22:08:57.590Z,2.17
2018-09-13T22:11:29.237Z,2.23
2018-09-13T22:14:00.774Z,2.20
2018-09-13T22:16:32.600Z,2.30
2018-09-13T22:19:04.206Z,2.10
2018-09-13T22:21:35.935Z,2.03
2018-09-13T22:24:07.601Z,2.30
2018-09-13T22:26:39.436Z,2.10
2018-09-13T22:29:10.950Z,1.80
2018-09-13T22:31:42.426Z,2.10
2018-09-13T22:34:14.211Z,2.13
2018-09-13T22:36:45.725Z,2.07
2018-09-13T22:39:18.308Z,1.97
2018-09-13T22:41:49.801Z,2.03
2018-09-13T22:44:21.143Z,1.90
2018-09-13T22:46:52.738Z,1.97
2018-09-13T22:49:24.460Z,1.90
2018-09-13T22:51:55.904Z,1.90
2018-09-13T22:56:58.050Z,1.90
2018-09-13T22:59:29.756Z,2.00
2018-09-13T23:02:01.414Z,1.90
2018-09-13T23:04:32.909Z,1.93
2018-09-13T23:09:35.408Z,2.07
2018-09-13T23:12:07.305Z,1.73
2018-09-13T23:14:39.205Z,1.70
2018-09-13T23:17:10.769Z,1.90
2018-09-13T23:19:42.301Z,1.87
2018-09-13T23:22:14.329Z,2.00
2018-09-13T23:24:45.851Z,1.80
2018-09-13T23:27:18.200Z,1.80
2018-09-13T23:29:49.751Z,1.90
2018-09-13T23:32:21.419Z,1.80
2018-09-13T23:34:52.982Z,1.70
2018-09-13T23:37:24.541Z,1.97
2018-09-13T23:39:56.146Z,2.27
2018-09-13T23:42:27.747Z,2.00
2018-09-13T23:44:59.378Z,1.80
2018-09-13T23:47:30.999Z,1.80
2018-09-13T23:50:02.647Z,2.17
2018-09-13T23:52:37.400Z,1.77
2018-09-13T23:55:08.997Z,1.60
2018-09-13T23:57:40.516Z,1.60
